If you wish to contribute or participate in the discussions about articles you are invited to join SKYbrary as a registered user

 Actions

Egilsstaðir Airport

From SKYbrary Wiki

BIEG
Airport
ICAO: BIEG – IATA: EGS
Summary
Name Egilsstaðir Airport
Region Northern Atlantic
Territory Iceland IS.gif
Location , Austurland
Serving Egilsstadir
Elevation 23.165 m <br />76 ft <br />76 ft23.165 m <br />
Type medium airport
Coordinates 65° 17' 0.00" N, 14° 24' 5.00" W
Runways
Designator Length Width Surface ROPS
4/22 2000 m6,561.68 ft <br /> 45 m147.638 ft <br /> ASP no/no


METAR
Observation BIEG 251300Z 21010KT 9999 FEW035 SCT100 01/M02 Q1003 R04/190095
Station Egilsstadir
Date/Time 25 February 2021 13:00:00
Wind direction 210°
Wind speed 10 kts
Lowest cloud amount few clouds
Temperature 1°C
Dew point
Humidity 80%
QNH 1003 hPa
Weather condition n/a